sensor_id;sensor_type;location;lat;lon;timestamp;temperature;humidity
18126;DHT22;53956;52.442;13.284;2024-01-07T00:00:53;2.70;99.90
18126;DHT22;53956;52.442;13.284;2024-01-07T00:03:19;2.60;99.90
18126;DHT22;53956;52.442;13.284;2024-01-07T00:05:46;2.70;99.90
18126;DHT22;53956;52.442;13.284;2024-01-07T00:08:13;2.60;99.90
18126;DHT22;53956;52.442;13.284;2024-01-07T00:10:40;2.50;99.90
18126;DHT22;53956;52.442;13.284;2024-01-07T00:13:06;2.30;99.90
18126;DHT22;53956;52.442;13.284;2024-01-07T00:15:34;2.40;99.90
18126;DHT22;53956;52.442;13.284;2024-01-07T00:18:01;2.30;99.90
18126;DHT22;53956;52.442;13.284;2024-01-07T00:20:28;2.40;99.90
18126;DHT22;53956;52.442;13.284;2024-01-07T00:22:54;2.50;99.90
18126;DHT22;53956;52.442;13.284;2024-01-07T00:25:21;2.50;99.90
18126;DHT22;53956;52.442;13.284;2024-01-07T00:27:48;2.50;99.90
18126;DHT22;53956;52.442;13.284;2024-01-07T00:30:16;2.70;99.90
18126;DHT22;53956;52.442;13.284;2024-01-07T00:32:44;2.60;99.90
18126;DHT22;53956;52.442;13.284;2024-01-07T00:35:11;2.50;99.90
18126;DHT22;53956;52.442;13.284;2024-01-07T00:37:38;2.80;99.90
18126;DHT22;53956;52.442;13.284;2024-01-07T00:40:05;2.60;99.90
18126;DHT22;53956;52.442;13.284;2024-01-07T00:42:32;2.90;99.90
18126;DHT22;53956;52.442;13.284;2024-01-07T00:44:59;2.50;99.90
18126;DHT22;53956;52.442;13.284;2024-01-07T00:47:25;2.70;99.90
18126;DHT22;53956;52.442;13.284;2024-01-07T00:49:53;2.40;99.90
18126;DHT22;53956;52.442;13.284;2024-01-07T00:52:20;2.40;99.90
18126;DHT22;53956;52.442;13.284;2024-01-07T00:54:48;2.40;99.90
18126;DHT22;53956;52.442;13.284;2024-01-07T00:57:15;2.50;99.90
18126;DHT22;53956;52.442;13.284;2024-01-07T00:59:41;2.50;99.90
18126;DHT22;53956;52.442;13.284;2024-01-07T01:02:08;2.50;99.90
18126;DHT22;53956;52.442;13.284;2024-01-07T01:04:38;2.30;99.90
18126;DHT22;53956;52.442;13.284;2024-01-07T01:07:06;2.30;99.90
18126;DHT22;53956;52.442;13.284;2024-01-07T01:09:33;2.20;99.90
18126;DHT22;53956;52.442;13.284;2024-01-07T01:12:00;2.20;99.90
18126;DHT22;53956;52.442;13.284;2024-01-07T01:14:27;2.20;99.90
18126;DHT22;53956;52.442;13.284;2024-01-07T01:16:53;2.20;99.90
18126;DHT22;53956;52.442;13.284;2024-01-07T01:19:20;2.20;99.90
18126;DHT22;53956;52.442;13.284;2024-01-07T01:21:46;2.30;99.90
18126;DHT22;53956;52.442;13.284;2024-01-07T01:24:14;2.30;99.90
18126;DHT22;53956;52.442;13.284;2024-01-07T01:26:41;2.40;99.90
18126;DHT22;53956;52.442;13.284;2024-01-07T01:29:07;2.50;99.90
18126;DHT22;53956;52.442;13.284;2024-01-07T01:31:34;2.10;99.90
18126;DHT22;53956;52.442;13.284;2024-01-07T01:34:01;2.00;99.90
18126;DHT22;53956;52.442;13.284;2024-01-07T01:36:27;2.10;99.90
18126;DHT22;53956;52.442;13.284;2024-01-07T01:38:54;2.20;99.90
18126;DHT22;53956;52.442;13.284;2024-01-07T01:41:22;2.10;99.90
18126;DHT22;53956;52.442;13.284;2024-01-07T01:43:48;2.20;99.90
18126;DHT22;53956;52.442;13.284;2024-01-07T01:46:15;2.30;99.90
18126;DHT22;53956;52.442;13.284;2024-01-07T01:48:42;2.00;99.90
18126;DHT22;53956;52.442;13.284;2024-01-07T01:51:09;2.10;99.90
18126;DHT22;53956;52.442;13.284;2024-01-07T01:53:37;2.00;99.90
18126;DHT22;53956;52.442;13.284;2024-01-07T01:56:05;2.00;99.90
18126;DHT22;53956;52.442;13.284;2024-01-07T01:58:33;2.00;99.90
18126;DHT22;53956;52.442;13.284;2024-01-07T02:01:00;1.80;99.90
18126;DHT22;53956;52.442;13.284;2024-01-07T02:03:26;2.00;99.90
18126;DHT22;53956;52.442;13.284;2024-01-07T02:05:54;1.90;99.90
18126;DHT22;53956;52.442;13.284;2024-01-07T02:08:21;1.80;99.90
18126;DHT22;53956;52.442;13.284;2024-01-07T02:10:47;1.90;99.90
18126;DHT22;53956;52.442;13.284;2024-01-07T02:13:14;2.00;99.90
18126;DHT22;53956;52.442;13.284;2024-01-07T02:15:42;2.10;99.90
18126;DHT22;53956;52.442;13.284;2024-01-07T02:18:09;1.90;99.90
18126;DHT22;53956;52.442;13.284;2024-01-07T02:20:36;2.00;99.90
18126;DHT22;53956;52.442;13.284;2024-01-07T02:23:02;1.70;99.90
18126;DHT22;53956;52.442;13.284;2024-01-07T02:25:35;1.70;99.90
18126;DHT22;53956;52.442;13.284;2024-01-07T02:28:01;1.80;99.90
18126;DHT22;53956;52.442;13.284;2024-01-07T02:30:29;1.70;99.90
18126;DHT22;53956;52.442;13.284;2024-01-07T02:32:55;1.70;99.90
18126;DHT22;53956;52.442;13.284;2024-01-07T02:35:22;1.70;99.90
18126;DHT22;53956;52.442;13.284;2024-01-07T02:37:49;1.70;99.90
18126;DHT22;53956;52.442;13.284;2024-01-07T02:40:16;1.60;99.90
18126;DHT22;53956;52.442;13.284;2024-01-07T02:42:44;1.50;99.90
18126;DHT22;53956;52.442;13.284;2024-01-07T02:45:11;1.40;99.90
18126;DHT22;53956;52.442;13.284;2024-01-07T02:47:38;1.70;99.90
18126;DHT22;53956;52.442;13.284;2024-01-07T02:50:05;1.50;99.90
18126;DHT22;53956;52.442;13.284;2024-01-07T02:52:32;1.40;99.90
18126;DHT22;53956;52.442;13.284;2024-01-07T02:54:59;1.50;99.90
18126;DHT22;53956;52.442;13.284;2024-01-07T02:57:27;1.70;99.90
18126;DHT22;53956;52.442;13.284;2024-01-07T02:59:55;1.40;99.90
18126;DHT22;53956;52.442;13.284;2024-01-07T03:02:21;1.50;99.90
18126;DHT22;53956;52.442;13.284;2024-01-07T03:04:48;1.60;99.90
18126;DHT22;53956;52.442;13.284;2024-01-07T03:07:14;1.30;99.90
18126;DHT22;53956;52.442;13.284;2024-01-07T03:09:41;1.00;99.90
18126;DHT22;53956;52.442;13.284;2024-01-07T03:12:08;1.40;99.90
18126;DHT22;53956;52.442;13.284;2024-01-07T03:14:34;1.40;99.90
18126;DHT22;53956;52.442;13.284;2024-01-07T03:17:02;1.20;99.90
18126;DHT22;53956;52.442;13.284;2024-01-07T03:19:29;1.20;99.90
18126;DHT22;53956;52.442;13.284;2024-01-07T03:21:55;1.00;99.90
18126;DHT22;53956;52.442;13.284;2024-01-07T03:24:22;1.00;99.90
18126;DHT22;53956;52.442;13.284;2024-01-07T03:26:48;1.30;99.90
18126;DHT22;53956;52.442;13.284;2024-01-07T03:29:15;1.20;99.90
18126;DHT22;53956;52.442;13.284;2024-01-07T03:31:42;1.10;99.90
18126;DHT22;53956;52.442;13.284;2024-01-07T03:34:10;1.30;99.90
18126;DHT22;53956;52.442;13.284;2024-01-07T03:36:37;1.10;99.90
18126;DHT22;53956;52.442;13.284;2024-01-07T03:39:03;0.90;99.90
18126;DHT22;53956;52.442;13.284;2024-01-07T03:41:30;0.70;99.90
18126;DHT22;53956;52.442;13.284;2024-01-07T03:43:57;1.00;99.90
18126;DHT22;53956;52.442;13.284;2024-01-07T03:46:23;0.90;99.90
18126;DHT22;53956;52.442;13.284;2024-01-07T03:48:50;1.30;99.90
18126;DHT22;53956;52.442;13.284;2024-01-07T03:51:18;1.20;99.90
18126;DHT22;53956;52.442;13.284;2024-01-07T03:53:44;1.20;99.90
18126;DHT22;53956;52.442;13.284;2024-01-07T03:56:11;1.20;99.90
18126;DHT22;53956;52.442;13.284;2024-01-07T03:58:38;1.30;99.90
18126;DHT22;53956;52.442;13.284;2024-01-07T04:01:04;1.50;99.90
18126;DHT22;53956;52.442;13.284;2024-01-07T04:03:31;1.30;99.90
18126;DHT22;53956;52.442;13.284;2024-01-07T04:05:57;1.20;99.90
18126;DHT22;53956;52.442;13.284;2024-01-07T04:08:25;1.20;99.90
18126;DHT22;53956;52.442;13.284;2024-01-07T04:10:52;1.40;99.90
18126;DHT22;53956;52.442;13.284;2024-01-07T04:13:18;0.90;99.90
18126;DHT22;53956;52.442;13.284;2024-01-07T04:15:45;1.20;99.90
18126;DHT22;53956;52.442;13.284;2024-01-07T04:18:12;1.20;99.90
18126;DHT22;53956;52.442;13.284;2024-01-07T04:20:39;1.40;99.90
18126;DHT22;53956;52.442;13.284;2024-01-07T04:23:05;0.90;99.90
18126;DHT22;53956;52.442;13.284;2024-01-07T04:25:33;1.20;99.90
18126;DHT22;53956;52.442;13.284;2024-01-07T04:28:00;1.20;99.90
18126;DHT22;53956;52.442;13.284;2024-01-07T04:30:26;0.80;99.90
18126;DHT22;53956;52.442;13.284;2024-01-07T04:32:53;0.80;99.90
18126;DHT22;53956;52.442;13.284;2024-01-07T04:35:19;0.80;99.90
18126;DHT22;53956;52.442;13.284;2024-01-07T04:37:46;0.90;99.90
18126;DHT22;53956;52.442;13.284;2024-01-07T04:40:13;1.00;99.90
18126;DHT22;53956;52.442;13.284;2024-01-07T04:42:41;0.80;99.90
18126;DHT22;53956;52.442;13.284;2024-01-07T04:45:08;0.80;99.90
18126;DHT22;53956;52.442;13.284;2024-01-07T04:47:34;0.90;99.90
18126;DHT22;53956;52.442;13.284;2024-01-07T04:50:01;0.70;99.90
18126;DHT22;53956;52.442;13.284;2024-01-07T04:52:28;1.00;99.90
18126;DHT22;53956;52.442;13.284;2024-01-07T04:54:55;1.20;99.90
18126;DHT22;53956;52.442;13.284;2024-01-07T04:57:22;1.10;99.90
18126;DHT22;53956;52.442;13.284;2024-01-07T04:59:50;1.30;99.90
18126;DHT22;53956;52.442;13.284;2024-01-07T05:02:17;1.20;99.90
18126;DHT22;53956;52.442;13.284;2024-01-07T05:04:44;1.20;99.90
18126;DHT22;53956;52.442;13.284;2024-01-07T05:07:10;1.00;99.90
18126;DHT22;53956;52.442;13.284;2024-01-07T05:09:37;1.10;99.90
18126;DHT22;53956;52.442;13.284;2024-01-07T05:12:04;1.20;99.90
18126;DHT22;53956;52.442;13.284;2024-01-07T05:14:31;1.00;99.90
18126;DHT22;53956;52.442;13.284;2024-01-07T05:16:58;1.20;99.90
18126;DHT22;53956;52.442;13.284;2024-01-07T05:19:25;0.90;99.90
18126;DHT22;53956;52.442;13.284;2024-01-07T05:21:52;1.00;99.90
18126;DHT22;53956;52.442;13.284;2024-01-07T05:24:19;1.20;99.90
18126;DHT22;53956;52.442;13.284;2024-01-07T05:26:45;1.40;99.90
18126;DHT22;53956;52.442;13.284;2024-01-07T05:29:12;1.40;99.90
18126;DHT22;53956;52.442;13.284;2024-01-07T05:31:39;0.80;99.90
18126;DHT22;53956;52.442;13.284;2024-01-07T05:34:07;1.00;99.90
18126;DHT22;53956;52.442;13.284;2024-01-07T05:36:34;1.00;99.90
18126;DHT22;53956;52.442;13.284;2024-01-07T05:39:01;1.00;99.90
18126;DHT22;53956;52.442;13.284;2024-01-07T05:41:27;1.00;99.90
18126;DHT22;53956;52.442;13.284;2024-01-07T05:43:54;1.00;99.90
18126;DHT22;53956;52.442;13.284;2024-01-07T05:46:21;0.80;99.90
18126;DHT22;53956;52.442;13.284;2024-01-07T05:48:48;1.00;99.90
18126;DHT22;53956;52.442;13.284;2024-01-07T05:51:19;1.20;99.90
18126;DHT22;53956;52.442;13.284;2024-01-07T05:53:46;1.40;99.90
18126;DHT22;53956;52.442;13.284;2024-01-07T05:56:13;1.20;99.90
18126;DHT22;53956;52.442;13.284;2024-01-07T05:58:39;1.10;99.90
18126;DHT22;53956;52.442;13.284;2024-01-07T06:01:07;1.30;99.90
18126;DHT22;53956;52.442;13.284;2024-01-07T06:03:34;1.50;99.90
18126;DHT22;53956;52.442;13.284;2024-01-07T06:06:00;1.40;99.90
18126;DHT22;53956;52.442;13.284;2024-01-07T06:08:28;1.30;99.90
18126;DHT22;53956;52.442;13.284;2024-01-07T06:10:55;1.30;99.90
18126;DHT22;53956;52.442;13.284;2024-01-07T06:13:22;1.10;99.90
18126;DHT22;53956;52.442;13.284;2024-01-07T06:15:48;1.40;99.90
18126;DHT22;53956;52.442;13.284;2024-01-07T06:18:15;1.20;99.90
18126;DHT22;53956;52.442;13.284;2024-01-07T06:20:41;1.30;99.90
18126;DHT22;53956;52.442;13.284;2024-01-07T06:23:08;1.40;99.90
18126;DHT22;53956;52.442;13.284;2024-01-07T06:25:36;1.20;99.90
18126;DHT22;53956;52.442;13.284;2024-01-07T06:28:03;1.00;99.90
18126;DHT22;53956;52.442;13.284;2024-01-07T06:30:30;1.00;99.90
18126;DHT22;53956;52.442;13.284;2024-01-07T06:32:56;0.90;99.90
18126;DHT22;53956;52.442;13.284;2024-01-07T06:35:23;1.20;99.90
18126;DHT22;53956;52.442;13.284;2024-01-07T06:37:49;1.60;99.90
18126;DHT22;53956;52.442;13.284;2024-01-07T06:40:16;1.40;99.90
18126;DHT22;53956;52.442;13.284;2024-01-07T06:42:44;1.20;99.90
18126;DHT22;53956;52.442;13.284;2024-01-07T06:45:10;1.20;99.90
18126;DHT22;53956;52.442;13.284;2024-01-07T06:47:37;1.30;99.90
18126;DHT22;53956;52.442;13.284;2024-01-07T06:50:05;1.10;99.90
18126;DHT22;53956;52.442;13.284;2024-01-07T06:52:32;1.20;99.90
18126;DHT22;53956;52.442;13.284;2024-01-07T06:54:58;1.60;99.90
18126;DHT22;53956;52.442;13.284;2024-01-07T06:57:25;1.50;99.90
18126;DHT22;53956;52.442;13.284;2024-01-07T06:59:53;1.60;99.90
18126;DHT22;53956;52.442;13.284;2024-01-07T07:02:20;1.70;99.90
18126;DHT22;53956;52.442;13.284;2024-01-07T07:04:46;1.40;99.90
18126;DHT22;53956;52.442;13.284;2024-01-07T07:07:13;1.30;99.90
18126;DHT22;53956;52.442;13.284;2024-01-07T07:09:40;1.30;99.90
18126;DHT22;53956;52.442;13.284;2024-01-07T07:12:07;1.10;99.90
18126;DHT22;53956;52.442;13.284;2024-01-07T07:14:33;1.10;99.90
18126;DHT22;53956;52.442;13.284;2024-01-07T07:17:01;1.20;99.90
18126;DHT22;53956;52.442;13.284;2024-01-07T07:19:28;1.00;99.90
18126;DHT22;53956;52.442;13.284;2024-01-07T07:21:55;1.30;99.90
18126;DHT22;53956;52.442;13.284;2024-01-07T07:24:22;1.50;99.90
18126;DHT22;53956;52.442;13.284;2024-01-07T07:26:49;1.80;99.90
18126;DHT22;53956;52.442;13.284;2024-01-07T07:29:16;1.80;99.90
18126;DHT22;53956;52.442;13.284;2024-01-07T07:31:42;1.50;99.90
18126;DHT22;53956;52.442;13.284;2024-01-07T07:34:11;1.60;99.90
18126;DHT22;53956;52.442;13.284;2024-01-07T07:36:38;1.80;99.90
18126;DHT22;53956;52.442;13.284;2024-01-07T07:39:06;1.80;99.90
18126;DHT22;53956;52.442;13.284;2024-01-07T07:41:32;2.10;99.90
18126;DHT22;53956;52.442;13.284;2024-01-07T07:43:59;1.90;99.80
18126;DHT22;53956;52.442;13.284;2024-01-07T07:46:25;1.90;99.90
18126;DHT22;53956;52.442;13.284;2024-01-07T07:48:52;1.80;99.90
18126;DHT22;53956;52.442;13.284;2024-01-07T07:51:20;1.90;99.90
18126;DHT22;53956;52.442;13.284;2024-01-07T07:53:47;1.80;99.90
18126;DHT22;53956;52.442;13.284;2024-01-07T07:56:13;1.90;99.90
18126;DHT22;53956;52.442;13.284;2024-01-07T07:58:40;1.80;98.90
18126;DHT22;53956;52.442;13.284;2024-01-07T20:32:36;-3276.70;99.70
18126;DHT22;53956;52.442;13.284;2024-01-07T20:35:04;1.00;93.60
18126;DHT22;53956;52.442;13.284;2024-01-07T20:37:31;0.70;92.10
18126;DHT22;53956;52.442;13.284;2024-01-07T20:39:57;1.00;92.80
18126;DHT22;53956;52.442;13.284;2024-01-07T20:42:24;1.10;92.30
18126;DHT22;53956;52.442;13.284;2024-01-07T20:44:50;1.00;90.60
18126;DHT22;53956;52.442;13.284;2024-01-07T20:47:16;0.90;88.10
18126;DHT22;53956;52.442;13.284;2024-01-07T20:49:44;0.80;85.70
18126;DHT22;53956;52.442;13.284;2024-01-07T20:52:11;0.70;85.50
18126;DHT22;53956;52.442;13.284;2024-01-07T20:54:38;0.30;83.80
18126;DHT22;53956;52.442;13.284;2024-01-07T20:57:06;0.30;82.10
18126;DHT22;53956;52.442;13.284;2024-01-07T20:59:33;0.20;81.80
18126;DHT22;53956;52.442;13.284;2024-01-07T21:02:00;0.40;80.00
18126;DHT22;53956;52.442;13.284;2024-01-07T21:04:26;0.10;79.10
18126;DHT22;53956;52.442;13.284;2024-01-07T21:06:55;0.20;78.90
18126;DHT22;53956;52.442;13.284;2024-01-07T21:09:21;0.30;77.90
18126;DHT22;53956;52.442;13.284;2024-01-07T21:11:48;0.10;77.00
18126;DHT22;53956;52.442;13.284;2024-01-07T21:14:15;0.00;77.70
18126;DHT22;53956;52.442;13.284;2024-01-07T21:16:41;0.10;77.60
18126;DHT22;53956;52.442;13.284;2024-01-07T21:19:08;0.00;77.00
18126;DHT22;53956;52.442;13.284;2024-01-07T21:21:35;0.00;78.10
18126;DHT22;53956;52.442;13.284;2024-01-07T21:24:05;-3276.70;77.40
18126;DHT22;53956;52.442;13.284;2024-01-07T21:26:32;0.00;78.40
18126;DHT22;53956;52.442;13.284;2024-01-07T21:28:58;0.10;79.00
18126;DHT22;53956;52.442;13.284;2024-01-07T21:31:26;0.20;79.00
18126;DHT22;53956;52.442;13.284;2024-01-07T21:33:53;0.10;79.30
18126;DHT22;53956;52.442;13.284;2024-01-07T21:36:19;0.20;80.00
18126;DHT22;53956;52.442;13.284;2024-01-07T21:38:46;0.00;79.60
18126;DHT22;53956;52.442;13.284;2024-01-07T21:41:14;0.20;80.00
18126;DHT22;53956;52.442;13.284;2024-01-07T21:43:40;0.00;79.70
18126;DHT22;53956;52.442;13.284;2024-01-07T21:46:07;-3276.60;80.30
18126;DHT22;53956;52.442;13.284;2024-01-07T21:48:38;0.00;80.40
18126;DHT22;53956;52.442;13.284;2024-01-07T21:51:04;0.00;81.50
18126;DHT22;53956;52.442;13.284;2024-01-07T21:53:32;-3276.70;81.20
18126;DHT22;53956;52.442;13.284;2024-01-07T21:55:59;0.10;82.00
18126;DHT22;53956;52.442;13.284;2024-01-07T21:58:27;0.00;82.40
18126;DHT22;53956;52.442;13.284;2024-01-07T22:00:54;0.00;82.30
18126;DHT22;53956;52.442;13.284;2024-01-07T22:03:21;0.00;83.50
18126;DHT22;53956;52.442;13.284;2024-01-07T22:05:48;0.20;83.00
18126;DHT22;53956;52.442;13.284;2024-01-07T22:08:14;0.20;83.10
18126;DHT22;53956;52.442;13.284;2024-01-07T22:10:41;0.00;83.50
18126;DHT22;53956;52.442;13.284;2024-01-07T22:13:07;-3276.60;83.60
18126;DHT22;53956;52.442;13.284;2024-01-07T22:15:35;-3276.60;84.80
18126;DHT22;53956;52.442;13.284;2024-01-07T22:18:03;-3276.30;85.50
18126;DHT22;53956;52.442;13.284;2024-01-07T22:20:30;-3276.40;85.70
18126;DHT22;53956;52.442;13.284;2024-01-07T22:22:56;-3276.50;85.80
18126;DHT22;53956;52.442;13.284;2024-01-07T22:25:23;-3276.40;86.10
18126;DHT22;53956;52.442;13.284;2024-01-07T22:27:49;-3276.30;86.00
18126;DHT22;53956;52.442;13.284;2024-01-07T22:30:16;-3276.50;86.70
18126;DHT22;53956;52.442;13.284;2024-01-07T22:32:44;-3276.50;86.80
18126;DHT22;53956;52.442;13.284;2024-01-07T22:35:12;-3276.60;86.00
18126;DHT22;53956;52.442;13.284;2024-01-07T22:37:39;-3276.50;86.90
18126;DHT22;53956;52.442;13.284;2024-01-07T22:40:07;-3276.40;86.20
18126;DHT22;53956;52.442;13.284;2024-01-07T22:42:33;-3276.20;86.40
18126;DHT22;53956;52.442;13.284;2024-01-07T22:45:00;-3276.10;86.60
18126;DHT22;53956;52.442;13.284;2024-01-07T22:47:27;-3276.20;87.30
18126;DHT22;53956;52.442;13.284;2024-01-07T22:49:55;-3276.00;87.30
18126;DHT22;53956;52.442;13.284;2024-01-07T22:52:21;-3276.10;87.40
18126;DHT22;53956;52.442;13.284;2024-01-07T22:54:48;-3276.20;87.10
18126;DHT22;53956;52.442;13.284;2024-01-07T22:57:15;-3276.20;87.50
18126;DHT22;53956;52.442;13.284;2024-01-07T22:59:41;-3276.00;87.90
18126;DHT22;53956;52.442;13.284;2024-01-07T23:02:08;-3275.80;87.30
18126;DHT22;53956;52.442;13.284;2024-01-07T23:04:35;-3276.10;87.60
18126;DHT22;53956;52.442;13.284;2024-01-07T23:07:03;-3276.50;88.10
18126;DHT22;53956;52.442;13.284;2024-01-07T23:09:29;-3276.40;87.80
18126;DHT22;53956;52.442;13.284;2024-01-07T23:11:56;-3276.30;87.30
18126;DHT22;53956;52.442;13.284;2024-01-07T23:14:22;-3276.00;86.80
18126;DHT22;53956;52.442;13.284;2024-01-07T23:16:49;-3275.80;87.30
18126;DHT22;53956;52.442;13.284;2024-01-07T23:19:16;-3275.70;87.10
18126;DHT22;53956;52.442;13.284;2024-01-07T23:21:42;-3275.80;87.00
18126;DHT22;53956;52.442;13.284;2024-01-07T23:24:10;-3275.60;86.70
18126;DHT22;53956;52.442;13.284;2024-01-07T23:26:37;0.20;0.20
18126;DHT22;53956;52.442;13.284;2024-01-07T23:29:03;0.20;0.20
18126;DHT22;53956;52.442;13.284;2024-01-07T23:31:30;0.20;0.20
18126;DHT22;53956;52.442;13.284;2024-01-07T23:33:56;0.20;0.20
18126;DHT22;53956;52.442;13.284;2024-01-07T23:36:23;0.20;0.20
18126;DHT22;53956;52.442;13.284;2024-01-07T23:38:50;0.20;0.20
18126;DHT22;53956;52.442;13.284;2024-01-07T23:41:18;0.20;0.20
18126;DHT22;53956;52.442;13.284;2024-01-07T23:43:44;0.20;0.20
18126;DHT22;53956;52.442;13.284;2024-01-07T23:46:11;0.20;0.20
18126;DHT22;53956;52.442;13.284;2024-01-07T23:48:37;0.20;0.20
18126;DHT22;53956;52.442;13.284;2024-01-07T23:51:04;0.20;0.20
18126;DHT22;53956;52.442;13.284;2024-01-07T23:53:31;0.20;0.20
18126;DHT22;53956;52.442;13.284;2024-01-07T23:55:58;0.20;0.20
18126;DHT22;53956;52.442;13.284;2024-01-07T23:58:26;0.20;0.20
